Time;durP1;ratioP1;P1;durP2;ratioP2;P2;SDS_P1;SDS_P2;PMS_P1;PMS_P2;Temp;Humidity;BMP_temperature;BMP_pressure;BME280_temperature;BME280_humidity;BME280_pressure;Samples;Min_cycle;Max_cycle;Signal;HPM_P1;HPM_P2
2022/05/10 00:01:43;;;;;;;19.57;10.50;;;;;;;14.00;72.07;101907.63;5029057;28;20480;-80
2022/05/10 00:04:10;;;;;;;21.13;10.88;;;;;;;13.92;72.38;101899.97;5032507;28;20026;-80
2022/05/10 00:06:39;;;;;;;23.83;12.10;;;;;;;13.86;72.58;101907.19;5028532;28;20040;-80
2022/05/10 00:09:05;;;;;;;19.45;10.95;;;;;;;13.78;72.37;101907.66;5031472;28;20100;-80
2022/05/10 00:11:31;;;;;;;14.52;9.95;;;;;;;13.70;72.49;101900.81;5026973;28;20041;-80
2022/05/10 00:13:57;;;;;;;18.33;10.33;;;;;;;13.70;73.01;101900.03;5029014;28;20125;-80
2022/05/10 00:16:22;;;;;;;17.50;11.05;;;;;;;13.67;73.92;101900.53;5030274;28;20052;-80
2022/05/10 00:18:48;;;;;;;23.93;11.27;;;;;;;13.62;72.96;101893.22;5030787;28;20025;-80
2022/05/10 00:21:18;;;;;;;17.40;10.88;;;;;;;13.63;72.93;101892.16;5028604;28;20029;-80
2022/05/10 00:23:46;;;;;;;21.25;11.30;;;;;;;13.61;72.95;101897.75;5030961;28;20021;-81
2022/05/10 00:26:11;;;;;;;18.73;10.85;;;;;;;13.57;73.05;101882.38;5030692;28;20044;-82
2022/05/10 00:28:37;;;;;;;19.20;11.17;;;;;;;13.50;73.04;101889.84;5031419;28;20451;-82
2022/05/10 00:31:02;;;;;;;14.83;11.03;;;;;;;13.46;73.78;101886.81;5028920;28;20056;-82
2022/05/10 00:33:30;;;;;;;19.87;11.33;;;;;;;13.46;73.23;101881.44;5030409;28;20552;-80
2022/05/10 00:35:56;;;;;;;15.95;10.90;;;;;;;13.41;73.74;101882.19;5029646;28;20075;-80
2022/05/10 00:38:28;;;;;;;18.52;10.68;;;;;;;13.41;73.18;101876.00;5029859;28;20037;-81
2022/05/10 00:40:54;;;;;;;26.45;11.57;;;;;;;13.31;74.04;101882.84;5025865;28;20535;-82
2022/05/10 00:43:42;;;;;;;18.98;11.23;;;;;;;13.31;73.41;101879.38;5030997;28;20112;-81
2022/05/10 00:46:20;;;;;;;15.95;10.55;;;;;;;13.22;73.53;101872.78;5031389;28;20395;-81
2022/05/10 00:48:52;;;;;;;16.98;11.40;;;;;;;13.17;74.60;101871.63;5033336;28;20455;-81
2022/05/10 00:51:44;;;;;;;16.00;10.52;;;;;;;13.17;73.70;101871.63;5031059;28;20022;-81
2022/05/10 00:54:27;;;;;;;22.83;12.02;;;;;;;13.13;74.88;101865.16;5031076;28;20052;-81
2022/05/10 00:57:25;;;;;;;18.80;11.53;;;;;;;13.08;73.79;101865.06;5028146;28;20079;-81
2022/05/10 01:00:05;;;;;;;18.63;11.60;;;;;;;13.04;74.74;101863.94;5029089;28;20327;-81
2022/05/10 01:02:47;;;;;;;17.67;11.05;;;;;;;12.98;75.15;101862.25;5029800;28;20025;-81
2022/05/10 01:05:45;;;;;;;19.35;11.45;;;;;;;12.91;74.95;101857.03;5028903;28;20025;-81
2022/05/10 01:08:19;;;;;;;17.48;12.02;;;;;;;12.85;76.25;101850.78;5008025;28;20060;-81
2022/05/10 01:10:55;;;;;;;17.40;11.43;;;;;;;12.83;76.11;101850.22;5028363;28;20021;-82
2022/05/10 01:13:32;;;;;;;22.90;12.43;;;;;;;12.77;76.54;101848.53;5030194;28;20424;-81
2022/05/10 01:16:06;;;;;;;19.83;12.30;;;;;;;12.76;76.63;101848.75;5027693;28;20021;-81
2022/05/10 01:18:32;;;;;;;17.95;12.23;;;;;;;12.72;77.07;101843.06;5027101;28;20112;-80
2022/05/10 01:21:06;;;;;;;22.40;12.55;;;;;;;12.70;77.05;101840.63;5028652;28;20151;-81
2022/05/10 01:24:10;;;;;;;16.80;11.63;;;;;;;12.67;76.30;101834.94;5029514;28;20033;-82
2022/05/10 01:26:57;;;;;;;17.58;12.35;;;;;;;12.67;77.22;101841.13;5013002;28;20512;-82
2022/05/10 01:29:29;;;;;;;18.17;11.98;;;;;;;12.64;76.92;101833.56;5029439;28;20120;-81
2022/05/10 01:34:47;;;;;;;18.80;11.80;;;;;;;12.59;77.50;101832.66;5027711;28;20103;-81
2022/05/10 01:37:17;;;;;;;21.45;12.00;;;;;;;12.52;78.36;101828.28;5029479;28;20171;-81
2022/05/10 01:39:55;;;;;;;17.48;12.18;;;;;;;12.51;77.47;101821.25;5028416;28;20116;-81
2022/05/10 01:42:32;;;;;;;20.52;12.50;;;;;;;12.47;78.24;101822.81;5049630;28;20039;-80
2022/05/10 01:45:26;;;;;;;19.58;12.98;;;;;;;12.46;77.81;101815.00;5028650;28;20057;-80
2022/05/10 01:47:58;;;;;;;22.10;12.80;;;;;;;12.42;79.07;101820.03;5021108;28;20045;-81
2022/05/10 01:50:40;;;;;;;19.57;12.60;;;;;;;12.38;77.47;101818.94;5027132;28;20300;-81
2022/05/10 01:53:13;;;;;;;22.02;13.07;;;;;;;12.36;78.22;101818.34;5027525;28;20079;-81
2022/05/10 01:55:43;;;;;;;18.48;13.02;;;;;;;12.29;78.96;101817.69;5028403;28;20198;-81
2022/05/10 01:58:19;;;;;;;20.65;12.82;;;;;;;12.24;79.12;101805.00;5029900;28;20029;-80
2022/05/10 02:00:55;;;;;;;19.33;12.57;;;;;;;12.21;79.41;101806.31;5028267;28;20025;-80
2022/05/10 02:03:42;;;;;;;18.40;13.10;;;;;;;12.17;78.88;101807.03;5011410;28;20033;-81
2022/05/10 02:06:32;;;;;;;18.80;12.82;;;;;;;12.17;79.32;101798.97;5031900;28;20037;-81
2022/05/10 02:09:03;;;;;;;18.73;12.35;;;;;;;12.19;79.00;101796.84;5033470;28;20045;-80
2022/05/10 02:11:29;;;;;;;21.27;13.68;;;;;;;12.18;79.32;101798.75;5026540;28;20131;-80
2022/05/10 02:14:17;;;;;;;20.07;13.30;;;;;;;12.21;78.83;101795.56;5029584;28;20053;-81
2022/05/10 02:16:46;;;;;;;19.45;12.82;;;;;;;12.17;79.51;101791.72;5042581;28;20116;-81
2022/05/10 02:19:18;;;;;;;20.52;13.57;;;;;;;12.17;79.67;101785.53;5014116;28;20021;-81
2022/05/10 02:21:51;;;;;;;20.27;12.70;;;;;;;12.21;80.17;101792.88;5027042;28;20489;-80
2022/05/10 02:24:23;;;;;;;24.10;13.43;;;;;;;12.23;80.48;101788.03;5014730;28;20021;-81
2022/05/10 02:27:09;;;;;;;18.03;13.20;;;;;;;12.26;79.16;101792.13;5042580;28;20037;-81
2022/05/10 02:34:53;;;;;;;19.95;13.13;;;;;;;12.32;79.61;101768.84;5042047;28;20047;-81
2022/05/10 02:37:19;;;;;;;24.08;13.98;;;;;;;12.35;79.07;101769.16;5046402;28;20032;-81
2022/05/10 02:39:46;;;;;;;20.60;13.90;;;;;;;12.31;79.68;101756.44;5045361;28;20021;-81
2022/05/10 02:42:14;;;;;;;19.10;12.75;;;;;;;12.36;79.28;101769.97;5031911;28;20048;-81
2022/05/10 02:44:41;;;;;;;19.77;13.30;;;;;;;12.35;79.54;101760.28;5045431;28;20557;-81
2022/05/10 02:47:08;;;;;;;19.95;13.30;;;;;;;12.39;79.33;101767.59;5033491;28;20025;-80
2022/05/10 02:49:35;;;;;;;23.80;13.52;;;;;;;12.34;79.26;101761.34;5037900;28;20079;-80
2022/05/10 02:52:01;;;;;;;22.88;13.32;;;;;;;12.35;79.47;101762.97;5030854;28;20032;-80
2022/05/10 02:54:26;;;;;;;18.50;13.00;;;;;;;12.35;79.31;101763.78;5047452;28;20025;-80
2022/05/10 02:56:52;;;;;;;20.23;12.97;;;;;;;12.33;79.71;101749.75;5031089;28;20091;-80
2022/05/10 02:59:24;;;;;;;20.17;13.15;;;;;;;12.31;79.80;101749.22;5037843;28;20489;-80
2022/05/10 03:02:10;;;;;;;19.35;12.43;;;;;;;12.31;79.81;101751.91;5050392;28;20068;-80
2022/05/10 03:04:39;;;;;;;18.45;12.40;;;;;;;12.33;80.03;101757.03;5044815;28;20025;-80
2022/05/10 03:07:06;;;;;;;20.90;13.13;;;;;;;12.33;80.38;101743.59;5038604;28;20121;-80
2022/05/10 03:09:32;;;;;;;22.80;13.35;;;;;;;12.33;80.04;101746.28;5040487;28;20025;-81
2022/05/10 03:11:57;;;;;;;26.97;13.63;;;;;;;12.32;80.77;101739.28;5050244;28;20031;-81
2022/05/10 03:14:23;;;;;;;21.33;13.10;;;;;;;12.35;80.33;101736.09;5037392;28;20172;-80
2022/05/10 03:16:48;;;;;;;21.02;12.73;;;;;;;12.38;80.16;101733.72;5036070;28;20026;-80
2022/05/10 03:19:16;;;;;;;24.10;13.00;;;;;;;12.37;80.33;101733.97;5051831;28;20025;-80
2022/05/10 03:21:42;;;;;;;18.95;13.07;;;;;;;12.40;80.49;101731.59;5051310;28;20112;-80
2022/05/10 03:24:08;;;;;;;22.45;13.45;;;;;;;12.39;80.97;101734.53;5046894;28;20124;-80
2022/05/10 03:26:34;;;;;;;20.05;13.65;;;;;;;12.43;80.75;101730.28;5030818;28;20385;-81
2022/05/10 03:28:59;;;;;;;19.23;13.10;;;;;;;12.47;80.51;101722.56;5030581;28;20037;-81
2022/05/10 03:31:26;;;;;;;22.03;13.13;;;;;;;12.47;81.15;101728.72;5043984;28;20291;-81
2022/05/10 03:36:38;;;;;;;23.67;13.80;;;;;;;12.49;81.14;101725.81;5038846;28;20082;-81
2022/05/10 03:39:04;;;;;;;23.40;13.87;;;;;;;12.47;81.89;101727.94;5036125;28;20880;-81
2022/05/10 03:41:30;;;;;;;20.65;14.48;;;;;;;12.40;81.93;101712.00;5048111;28;20034;-81
2022/05/10 03:43:55;;;;;;;21.73;14.07;;;;;;;12.44;82.54;101718.47;5036359;28;20041;-81
2022/05/10 03:46:21;;;;;;;20.60;13.87;;;;;;;12.43;81.68;101711.47;5032737;28;20029;-81
2022/05/10 03:48:48;;;;;;;23.80;14.57;;;;;;;12.42;83.10;101716.03;5034304;28;20048;-81
2022/05/10 03:51:13;;;;;;;23.65;13.90;;;;;;;12.44;81.92;101712.28;5046155;28;20055;-81
2022/05/10 03:53:39;;;;;;;22.07;13.13;;;;;;;12.43;82.17;101714.16;5046201;28;20037;-81
2022/05/10 03:56:05;;;;;;;23.13;14.60;;;;;;;12.39;82.27;101710.34;5034748;28;20489;-93
2022/05/10 03:58:30;;;;;;;23.15;14.32;;;;;;;12.42;81.45;101707.97;5034273;28;20079;-93
2022/05/10 04:00:55;;;;;;;22.30;14.57;;;;;;;12.45;81.89;101705.84;5038906;28;20025;-91
2022/05/10 04:03:20;;;;;;;23.27;14.83;;;;;;;12.44;82.00;101707.72;5037925;28;20029;-92
2022/05/10 04:05:46;;;;;;;26.27;15.07;;;;;;;12.43;82.14;101703.41;5045041;28;20041;-93
2022/05/10 04:08:11;;;;;;;21.05;14.32;;;;;;;12.49;81.77;101705.09;5038291;28;20045;-92
2022/05/10 04:10:36;;;;;;;22.07;14.87;;;;;;;12.52;82.25;101707.28;5037925;28;20026;-92
2022/05/10 04:13:01;;;;;;;25.83;15.03;;;;;;;12.52;82.34;101693.84;5033670;28;20044;-95
2022/05/10 04:15:27;;;;;;;26.97;15.50;;;;;;;12.58;82.79;101700.09;5030678;28;20558;-94
2022/05/10 04:17:52;;;;;;;26.67;15.50;;;;;;;12.66;81.86;101707.75;5033124;28;20476;-94
2022/05/10 04:20:17;;;;;;;22.77;14.70;;;;;;;12.69;81.19;101706.41;5032672;28;20211;-93
2022/05/10 04:22:43;;;;;;;26.50;15.57;;;;;;;12.74;81.53;101706.50;5042972;28;20092;-95
2022/05/10 04:25:09;;;;;;;24.03;15.80;;;;;;;12.76;82.55;101704.38;5035753;28;20029;-91
2022/05/10 04:27:35;;;;;;;26.77;15.75;;;;;;;12.81;82.36;101706.28;5037553;28;20026;-94
2022/05/10 04:30:00;;;;;;;29.50;16.15;;;;;;;12.90;81.69;101703.97;5034660;28;20576;-93
2022/05/10 04:32:27;;;;;;;31.87;16.83;;;;;;;12.92;82.45;101696.47;5032206;28;20439;-93
2022/05/10 04:34:52;;;;;;;29.08;15.07;;;;;;;13.01;81.35;101697.63;5032187;28;20128;-94
2022/05/10 04:37:17;;;;;;;32.37;16.03;;;;;;;13.06;80.83;101697.69;5029768;28;20536;-93
2022/05/10 04:42:26;;;;;;;28.65;16.45;;;;;;;13.21;80.49;101698.91;5035095;28;20056;-94
2022/05/10 04:44:51;;;;;;;28.27;15.97;;;;;;;13.29;79.96;101698.47;5034060;28;20480;-94
2022/05/10 04:47:17;;;;;;;32.27;15.80;;;;;;;13.32;79.34;101690.69;5032887;28;20120;-93
2022/05/10 04:49:42;;;;;;;28.20;16.53;;;;;;;13.41;79.57;101688.38;5031852;28;20104;-93
2022/05/10 04:52:10;;;;;;;25.80;16.20;;;;;;;13.51;78.44;101692.22;5032599;28;20029;-94
2022/05/10 04:54:35;;;;;;;25.75;16.20;;;;;;;13.57;78.17;101685.81;5033210;28;20021;-94
2022/05/10 04:57:01;;;;;;;33.60;17.73;;;;;;;13.65;77.80;101687.22;5033452;28;20583;-93
2022/05/10 04:59:26;;;;;;;27.48;16.58;;;;;;;13.71;77.10;101684.28;5034656;28;20033;-94
2022/05/10 05:01:51;;;;;;;33.33;17.40;;;;;;;13.85;76.63;101686.56;5034751;28;20032;-94
2022/05/10 05:04:17;;;;;;;37.20;17.73;;;;;;;13.96;76.17;101682.06;5028912;28;20021;-93
2022/05/10 05:06:45;;;;;;;32.53;16.93;;;;;;;14.14;75.79;101699.69;5033696;28;20044;-94
2022/05/10 05:09:10;;;;;;;29.63;16.85;;;;;;;14.22;75.09;101685.72;5049069;28;20381;-94
2022/05/10 05:11:35;;;;;;;31.00;16.55;;;;;;;14.28;75.41;101690.03;5048971;28;20020;-95
2022/05/10 05:14:01;;;;;;;29.00;17.77;;;;;;;14.35;75.00;101690.63;5051909;28;20045;-95
2022/05/10 05:16:26;;;;;;;29.73;16.87;;;;;;;14.38;74.50;101692.81;5050921;28;20024;-94
2022/05/10 05:18:51;;;;;;;26.60;16.40;;;;;;;14.46;74.74;101698.75;5046668;28;20029;-95
2022/05/10 05:21:17;;;;;;;27.10;16.00;;;;;;;14.50;74.37;101697.16;5034430;28;20049;-94
2022/05/10 05:23:43;;;;;;;33.13;16.25;;;;;;;14.57;74.08;101697.75;5031742;28;20029;-95
2022/05/10 05:26:09;;;;;;;25.33;15.83;;;;;;;14.60;74.01;101691.00;5032660;28;20053;-95
2022/05/10 05:28:34;;;;;;;24.33;15.30;;;;;;;14.68;73.67;101699.44;5032192;28;20366;-94
2022/05/10 05:31:01;;;;;;;25.57;15.37;;;;;;;14.72;74.20;101697.00;5030896;28;20377;-92
2022/05/10 05:33:26;;;;;;;27.92;15.90;;;;;;;14.75;73.74;101698.38;5029817;28;20036;-89
2022/05/10 05:35:52;;;;;;;23.30;15.02;;;;;;;14.85;73.88;101703.78;5038277;28;20396;-89
2022/05/10 05:38:17;;;;;;;27.00;15.57;;;;;;;14.91;73.80;101702.75;5030911;28;20029;-87
2022/05/10 05:40:42;;;;;;;24.67;14.53;;;;;;;14.94;73.65;101698.69;5030912;28;20018;-87
2022/05/10 05:43:16;;;;;;;28.60;14.90;;;;;;;15.08;73.66;101704.41;5029765;28;20385;-89
2022/05/10 05:45:41;;;;;;;19.77;13.23;;;;;;;15.15;73.46;101702.25;5029716;28;20029;-90
2022/05/10 05:48:07;;;;;;;29.13;14.47;;;;;;;15.24;72.58;101694.44;5031143;28;20087;-90
2022/05/10 05:50:32;;;;;;;21.60;13.48;;;;;;;15.37;71.78;101707.41;5285388;22;20124;-89
2022/05/10 05:52:58;;;;;;;21.97;13.50;;;;;;;15.49;71.97;101701.75;5043012;28;20437;-93
2022/05/10 05:55:24;;;;;;;27.63;13.55;;;;;;;15.63;71.87;101695.81;5043190;28;20479;-94
2022/05/10 05:57:49;;;;;;;23.47;12.93;;;;;;;15.89;70.83;101697.41;5041996;28;20033;-93
2022/05/10 06:00:19;;;;;;;19.57;12.30;;;;;;;16.13;69.39;101687.94;5037964;28;20443;-93
2022/05/10 06:02:48;;;;;;;20.52;12.55;;;;;;;16.37;69.09;101688.13;5031098;28;20033;-92
2022/05/10 06:05:13;;;;;;;21.58;12.48;;;;;;;16.56;68.66;101682.09;5030844;28;20026;-93
2022/05/10 06:07:39;;;;;;;28.60;12.97;;;;;;;16.65;67.68;101672.31;5030754;28;20044;-92
2022/05/10 06:10:06;;;;;;;17.98;11.30;;;;;;;16.80;66.87;101672.22;5244521;22;20514;-91
2022/05/10 06:12:31;;;;;;;16.00;10.80;;;;;;;16.87;66.62;101671.94;5048710;28;20178;-90
2022/05/10 06:15:07;;;;;;;17.57;10.60;;;;;;;17.01;66.39;101680.25;5044159;28;20551;-91
2022/05/10 06:17:33;;;;;;;17.50;9.70;;;;;;;17.17;65.42;101678.25;5036843;28;20099;-91
2022/05/10 06:19:58;;;;;;;16.60;9.90;;;;;;;17.25;64.99;101674.13;5033590;28;20185;-92
2022/05/10 06:22:23;;;;;;;14.37;9.50;;;;;;;17.42;64.57;101684.59;5027410;28;20033;-92
2022/05/10 06:24:49;;;;;;;20.40;10.10;;;;;;;17.63;63.52;101685.22;5044105;28;20018;-93
2022/05/10 06:27:19;;;;;;;16.48;8.80;;;;;;;17.91;63.75;101681.97;5031041;28;20049;-93
2022/05/10 06:29:44;;;;;;;18.90;8.73;;;;;;;18.04;62.27;101681.31;5015292;28;20038;-92
2022/05/10 06:32:11;;;;;;;13.40;7.82;;;;;;;18.25;62.27;101673.78;5037631;28;20036;-87
2022/05/10 06:34:38;;;;;;;11.55;8.20;;;;;;;18.35;62.31;101672.03;5050710;28;20066;-90
2022/05/10 06:38:15;;;;;;;13.27;6.72;;;;;;;18.49;60.92;101674.84;5055505;28;20074;-94
2022/05/10 06:39:51;;;;;;;11.30;7.77;;;;;;;18.58;60.67;101673.91;5015481;28;20074;-87
2022/05/10 06:42:24;;;;;;;9.97;7.50;;;;;;;18.75;60.53;101675.31;5013658;28;20268;-86
2022/05/10 06:45:27;;;;;;;12.70;7.22;;;;;;;18.94;60.74;101672.59;5015964;28;20921;-90
2022/05/10 06:51:08;;;;;;;17.85;7.38;;;;;;;19.22;59.29;101656.44;5381787;22;20049;-91
2022/05/10 06:53:34;;;;;;;7.78;6.72;;;;;;;19.34;58.41;101664.94;5033611;28;20494;-90
2022/05/10 06:56:00;;;;;;;15.50;7.22;;;;;;;19.39;57.70;101660.53;5034308;28;20025;-90
2022/05/10 06:58:25;;;;;;;10.37;6.87;;;;;;;19.50;58.02;101664.66;5034740;28;20021;-90
2022/05/10 07:00:57;;;;;;;10.50;6.60;;;;;;;19.54;57.74;101649.38;5142982;22;20480;-91
2022/05/10 07:03:31;;;;;;;10.43;6.47;;;;;;;19.71;57.16;101659.69;5033235;28;20035;-91
2022/05/10 07:05:58;;;;;;;12.40;6.90;;;;;;;19.74;57.30;101650.13;5031868;28;20732;-91
2022/05/10 07:08:23;;;;;;;10.07;6.80;;;;;;;19.69;56.72;101653.75;5032827;28;20037;-90
2022/05/10 07:10:48;;;;;;;16.07;7.27;;;;;;;19.74;56.80;101659.06;5031534;28;20365;-90
2022/05/10 07:13:16;;;;;;;12.37;7.37;;;;;;;19.71;57.22;101656.97;5034506;28;20116;-90
2022/05/10 07:15:41;;;;;;;14.80;6.90;;;;;;;19.88;56.98;101648.25;5027250;28;20049;-91
2022/05/10 07:18:10;;;;;;;9.70;6.90;;;;;;;20.19;57.18;101655.81;4994698;28;20031;-90
2022/05/10 07:20:36;;;;;;;16.88;7.30;;;;;;;20.42;56.08;101642.28;4993726;28;20398;-91
2022/05/10 07:23:02;;;;;;;8.63;6.60;;;;;;;20.76;55.52;101651.91;5007537;28;20026;-91
2022/05/10 07:25:28;;;;;;;10.65;6.60;;;;;;;20.98;54.69;101640.25;5012467;28;20026;-90
2022/05/10 07:27:56;;;;;;;8.73;6.45;;;;;;;21.01;53.61;101645.06;5012896;28;20049;-93
2022/05/10 07:30:25;;;;;;;15.97;7.70;;;;;;;20.88;53.88;101640.47;5010240;28;20585;-91
2022/05/10 07:32:52;;;;;;;9.60;7.33;;;;;;;20.93;53.68;101626.75;4985319;28;20309;-92
2022/05/10 07:36:23;;;;;;;9.30;6.70;;;;;;;21.38;52.81;101645.00;5007910;28;20061;-88
2022/05/10 07:38:06;;;;;;;8.68;6.68;;;;;;;21.70;51.87;101647.75;5028951;28;20083;-90
2022/05/10 07:40:31;;;;;;;11.27;6.30;;;;;;;21.80;50.91;101639.28;5030985;28;20038;-90
2022/05/10 07:42:57;;;;;;;13.53;6.20;;;;;;;21.87;50.45;101647.00;5015525;28;20028;-89
2022/05/10 07:45:22;;;;;;;13.83;6.13;;;;;;;21.92;50.62;101636.75;5009601;28;20331;-87
2022/05/10 07:47:47;;;;;;;17.27;6.57;;;;;;;22.07;49.93;101637.47;5011731;28;20038;-86
2022/05/10 07:50:13;;;;;;;14.07;6.63;;;;;;;22.31;50.23;101634.31;5004235;28;20038;-90
2022/05/10 07:52:40;;;;;;;12.40;6.07;;;;;;;22.61;49.61;101629.06;4997979;28;20289;-90
2022/05/10 07:55:08;;;;;;;10.20;6.05;;;;;;;22.81;48.55;101626.81;5004069;28;20084;-93
2022/05/10 07:57:33;;;;;;;10.50;6.07;;;;;;;23.07;47.95;101637.72;5011143;28;20116;-88
2022/05/10 07:59:58;;;;;;;8.93;5.50;;;;;;;23.26;47.85;101644.78;5031866;28;20100;-90
2022/05/10 08:02:24;;;;;;;13.80;5.53;;;;;;;23.28;48.11;101629.66;5011701;28;20022;-88
2022/05/10 08:04:50;;;;;;;16.67;6.03;;;;;;;23.44;47.19;101632.66;5011413;28;20080;-89
2022/05/10 08:07:15;;;;;;;11.27;5.40;;;;;;;23.46;46.22;101623.34;5014993;28;20083;-89
2022/05/10 08:09:41;;;;;;;10.10;5.25;;;;;;;23.38;46.61;101627.72;5009493;28;20564;-89
2022/05/10 08:12:07;;;;;;;13.23;6.00;;;;;;;23.03;46.47;101619.56;5012320;28;20034;-88
2022/05/10 08:14:32;;;;;;;8.10;5.30;;;;;;;23.23;46.58;101626.28;5010427;28;20493;-90
2022/05/10 08:16:57;;;;;;;7.70;5.20;;;;;;;23.51;46.91;101631.38;5013907;28;20053;-89
2022/05/10 08:19:22;;;;;;;9.83;5.10;;;;;;;23.80;45.98;101638.00;5005582;28;20107;-87
2022/05/10 08:21:48;;;;;;;8.63;5.60;;;;;;;23.70;45.12;101637.25;5005728;28;20050;-90
2022/05/10 08:24:13;;;;;;;7.83;4.67;;;;;;;23.74;44.66;101620.97;5009028;28;20029;-88
2022/05/10 08:26:38;;;;;;;7.50;5.30;;;;;;;23.64;44.82;101626.81;5021833;28;20033;-88
2022/05/10 08:29:03;;;;;;;10.00;5.17;;;;;;;23.53;44.86;101624.44;5026127;28;20017;-88
2022/05/10 08:31:29;;;;;;;10.90;4.40;;;;;;;23.68;45.03;101625.84;5016893;28;20041;-87
2022/05/10 08:33:54;;;;;;;8.63;4.87;;;;;;;23.56;45.54;101622.97;5009015;28;20072;-87
2022/05/10 08:36:20;;;;;;;8.97;5.17;;;;;;;23.46;45.68;101617.88;5013230;28;20030;-95
2022/05/10 08:38:46;;;;;;;6.10;4.83;;;;;;;23.41;45.16;101616.13;5036595;22;20041;-95
2022/05/10 08:41:32;;;;;;;9.98;5.05;;;;;;;23.46;46.10;101607.75;5038062;28;20037;-91
2022/05/10 08:44:11;;;;;;;10.82;4.32;;;;;;;23.44;46.26;101619.00;5033508;28;20083;-88
2022/05/10 08:46:43;;;;;;;8.65;4.57;;;;;;;23.36;46.55;101606.16;5031470;28;20045;-90
2022/05/10 08:49:23;;;;;;;10.85;4.88;;;;;;;23.42;46.38;101609.53;5030912;28;20040;-88
2022/05/10 08:51:51;;;;;;;11.60;4.45;;;;;;;23.38;45.90;101614.81;5009778;28;20033;-93
2022/05/10 08:54:17;;;;;;;7.45;4.57;;;;;;;23.46;45.06;101602.28;5012761;28;20026;-90
2022/05/10 08:56:53;;;;;;;8.33;4.40;;;;;;;23.67;44.71;101612.47;5013715;28;20010;-92
2022/05/10 08:59:44;;;;;;;7.97;4.63;;;;;;;23.61;44.40;101598.19;5013756;28;20112;-91
2022/05/10 09:02:47;;;;;;;8.65;4.20;;;;;;;23.81;43.83;101601.31;5011257;28;20061;-88
2022/05/10 09:05:45;;;;;;;8.55;4.45;;;;;;;24.11;44.29;101591.19;5012219;28;20053;-89
2022/05/10 09:09:01;;;;;;;6.00;4.30;;;;;;;24.55;43.83;101587.31;5011560;28;20022;-89
2022/05/10 09:11:34;;;;;;;5.78;3.88;;;;;;;25.19;41.78;101591.56;4969740;28;20126;-89
2022/05/10 09:14:00;;;;;;;9.17;4.17;;;;;;;25.51;39.57;101589.13;5008788;28;20038;-89
2022/05/10 09:16:25;;;;;;;8.23;4.40;;;;;;;25.47;40.63;101595.63;5014718;28;20280;-89
2022/05/10 09:18:54;;;;;;;10.63;4.28;;;;;;;25.18;40.07;101576.25;5011794;28;20030;-89
2022/05/10 09:21:43;;;;;;;13.13;4.40;;;;;;;25.51;41.03;101591.03;5010579;28;20030;-89
2022/05/10 09:24:18;;;;;;;6.68;4.07;;;;;;;25.74;39.66;101582.38;4998142;28;20025;-88
2022/05/10 09:26:50;;;;;;;10.35;4.60;;;;;;;25.63;39.40;101582.84;5015194;28;20030;-88
2022/05/10 09:29:27;;;;;;;6.28;4.53;;;;;;;25.69;39.88;101580.66;5023503;28;20519;-89
2022/05/10 09:34:49;;;;;;;10.05;3.88;;;;;;;25.98;38.98;101584.28;5010866;28;20064;-90
2022/05/10 09:37:29;;;;;;;7.22;4.07;;;;;;;26.20;39.74;101579.47;5029936;28;20025;-90
2022/05/10 09:39:57;;;;;;;9.55;4.40;;;;;;;26.15;38.50;101573.06;5017299;28;20468;-90
2022/05/10 09:42:39;;;;;;;10.13;5.25;;;;;;;26.32;39.44;101579.44;5018150;28;20043;-90
2022/05/10 09:45:31;;;;;;;11.53;4.60;;;;;;;26.20;39.89;101576.72;5008173;28;20037;-90
2022/05/10 09:48:11;;;;;;;15.33;4.50;;;;;;;26.37;39.07;101572.91;5025831;28;20283;-94
2022/05/10 09:50:44;;;;;;;9.52;4.30;;;;;;;26.52;38.36;101576.84;5012223;28;20037;-92
2022/05/10 09:53:22;;;;;;;10.07;4.55;;;;;;;26.23;38.94;101568.56;5011748;28;20041;-95
2022/05/10 09:55:54;;;;;;;10.07;4.20;;;;;;;26.19;38.87;101564.13;5018029;28;20033;-92
2022/05/10 09:58:39;;;;;;;8.77;4.78;;;;;;;26.00;38.90;101536.13;5041348;22;20007;-93
2022/05/10 10:01:11;;;;;;;10.20;4.75;;;;;;;26.26;39.64;101561.63;5031692;28;20099;-95
2022/05/10 10:03:45;;;;;;;6.10;4.50;;;;;;;26.13;39.72;101549.84;5050671;28;20024;-95
2022/05/10 10:06:25;;;;;;;7.07;4.55;;;;;;;25.95;39.90;101530.88;5050494;28;20037;-95
2022/05/10 10:09:01;;;;;;;8.25;5.05;;;;;;;26.18;39.57;101541.38;5068370;28;20029;-96
2022/05/10 10:11:54;;;;;;;12.27;4.83;;;;;;;26.18;39.41;101540.56;5064693;28;20017;-95
2022/05/10 10:14:46;;;;;;;10.70;4.60;;;;;;;25.94;39.28;101529.28;5045675;28;20307;-96
2022/05/10 10:17:28;;;;;;;8.32;4.60;;;;;;;26.02;39.18;101505.56;5056246;28;20037;-95
2022/05/10 10:20:48;;;;;;;9.77;5.10;;;;;;;26.54;39.30;101536.09;5064542;28;20006;-96
2022/05/10 10:23:50;;;;;;;6.55;4.53;;;;;;;26.74;38.32;101542.53;5039616;28;20084;-96
2022/05/10 10:26:53;;;;;;;10.10;4.80;;;;;;;26.96;37.64;101532.91;5042037;28;20489;-95
2022/05/10 10:32:24;;;;;;;10.90;4.47;;;;;;;26.95;37.19;101508.50;5067751;22;20077;-96
2022/05/10 10:34:55;;;;;;;13.75;4.38;;;;;;;27.01;36.97;101510.66;5057000;28;20092;-92
2022/05/10 10:37:38;;;;;;;22.45;4.90;;;;;;;27.11;36.63;101533.25;5054665;28;20039;-96
2022/05/10 10:41:01;;;;;;;20.73;4.37;;;;;;;27.10;35.79;101502.22;5213319;22;20156;-93
2022/05/10 10:43:49;;;;;;;15.87;6.37;;;;;;;27.35;35.04;101527.59;5002684;28;20371;-94
2022/05/10 10:50:06;;;;;;;19.42;4.50;;;;;;;28.00;33.63;101524.69;5498519;22;20088;-96
2022/05/10 10:52:32;;;;;;;13.70;4.40;;;;;;;28.22;33.54;101504.72;5077103;28;20033;-96
2022/05/10 10:55:32;;;;;;;13.30;4.73;;;;;;;28.49;32.94;101504.81;5072195;28;20029;-96
2022/05/10 11:01:29;;;;;;;12.63;4.63;;;;;;;28.88;32.84;101509.50;5352381;22;20503;-92
2022/05/10 11:04:01;;;;;;;12.50;4.63;;;;;;;28.85;31.95;101511.00;5057449;28;20024;-94
2022/05/10 11:06:59;;;;;;;13.48;4.80;;;;;;;28.62;32.80;101482.63;5065523;28;20021;-91
2022/05/10 11:09:51;;;;;;;13.40;4.88;;;;;;;28.46;33.12;101475.28;5047656;28;20029;-94
2022/05/10 11:12:52;;;;;;;9.05;4.10;;;;;;;28.74;32.59;101482.47;5052778;28;20387;-93
2022/05/10 11:15:40;;;;;;;15.20;4.40;;;;;;;29.15;32.36;101493.78;5033909;28;20063;-95
2022/05/10 11:18:30;;;;;;;9.93;4.60;;;;;;;29.07;31.90;101483.00;5033037;28;20030;-92
2022/05/10 11:21:19;;;;;;;7.20;4.53;;;;;;;28.35;32.61;101488.03;5049916;28;20272;-95
2022/05/10 11:24:01;;;;;;;13.48;4.90;;;;;;;27.80;33.39;101486.94;5039872;28;20029;-95
2022/05/10 11:26:43;;;;;;;7.57;4.35;;;;;;;27.90;33.37;101474.56;5056661;28;20033;-96
2022/05/10 11:29:28;;;;;;;13.00;4.25;;;;;;;28.23;32.99;101488.97;5047103;28;20022;-96
2022/05/10 11:32:10;;;;;;;9.40;4.28;;;;;;;28.54;32.28;101488.00;5036835;28;20029;-94
2022/05/10 11:35:05;;;;;;;11.68;5.10;;;;;;;28.45;32.32;101490.22;5040502;28;20009;-96
2022/05/10 11:37:43;;;;;;;8.50;4.05;;;;;;;28.85;31.87;101486.19;5054193;28;20041;-94
2022/05/10 11:40:31;;;;;;;10.45;4.40;;;;;;;29.45;31.49;101473.75;5050756;28;20029;-95
2022/05/10 11:43:14;;;;;;;7.53;4.85;;;;;;;29.64;32.03;101474.00;5035222;28;20037;-93
2022/05/10 11:45:41;;;;;;;7.27;4.50;;;;;;;29.84;31.39;101466.34;5042308;28;20040;-95
2022/05/10 11:48:16;;;;;;;7.87;5.07;;;;;;;29.75;30.64;101459.16;5048400;28;20321;-96
2022/05/10 11:56:49;;;;;;;17.25;4.43;;;;;;;28.30;32.71;101436.00;3211476;26;20465;-94
2022/05/10 11:59:37;;;;;;;12.73;5.00;;;;;;;28.55;32.93;101456.53;4995313;28;20517;-92
2022/05/10 12:02:04;;;;;;;8.98;4.60;;;;;;;28.67;31.75;101422.47;4990894;28;20081;-94
2022/05/10 12:04:44;;;;;;;13.32;4.90;;;;;;;28.70;32.57;101446.53;4998754;28;20026;-95
2022/05/10 12:07:18;;;;;;;10.60;4.18;;;;;;;29.01;31.97;101452.19;4992086;28;20409;-94
2022/05/10 12:09:52;;;;;;;8.48;4.28;;;;;;;29.23;30.96;101456.06;4992293;28;20117;-96
2022/05/10 12:12:32;;;;;;;11.70;3.93;;;;;;;29.74;30.90;101452.06;4988775;28;20049;-94
2022/05/10 12:21:19;;;;;;;12.38;4.30;;;;;;;29.65;30.51;101442.47;5001336;28;20050;-96